Cary, IL (60013)

9:04 AM CDT on July 23, 2017 (GMT -0500)
Cary 0.3 NE | | Change Station
Active Advisory: Flood Warning

Elev 809 ft 42.21 °N, 88.24 °W | Updated 10 seconds ago

Mostly Cloudy
Mostly Cloudy
76.9 °F
Feels Like 78 °F
N
0.0
Wind Variable Wind from South

Today
High -- | Low -- °F
--% Chance of Precip.
Yesterday
High -- | Low -- °F
Precip. -- in
Pressure 29.80 in
Visibility 10.0 miles
Clouds Few 6000 ft
Mostly Cloudy 7000 ft
Overcast 10000 ft
Heat Index 78 °F
Dew Point 71 °F
Humidity 83%
Rainfall 0.00 in
Snow Depth Not available.
5:37 AM 8:21 PM
New Moon, 0% visible
METAR KPWK 231352Z 28004KT 10SM FEW060 BKN070 OVC100 26/23 A2981 RMK AO2 SLP090 T02610228 $
Pressure 29.80 in
Visibility 10.0 miles
Clouds Few 6000 ft
Mostly Cloudy 7000 ft
Overcast 10000 ft
Heat Index 78 °F
Dew Point 71 °F
Humidity 83%
Rainfall 0.00 in
Snow Depth Not available.
5:37 AM 8:21 PM
New Moon, 0% visible
METAR KPWK 231352Z 28004KT 10SM FEW060 BKN070 OVC100 26/23 A2981 RMK AO2 SLP090 T02610228 $

Get Your Daily Forecast Email!

Thanks for signing up!

Be on the lookout for a verification email in your inbox.

You'll start receiving severe weather alerts in your inbox..

×

10-Day Weather Forecast

Almanac

Astronomy

Jul. 23, 2017 Rise Set
Actual Time
Civil Twilight
Nautical Twilight
Astronomical Twilight
Moon
Length of Visible Light
Length of Day
Tomorrow will be .
, % of the Moon is Illuminated

Today's Extremes

State Highs State Lows

Community

WunderPhotos

Category 6

Welcome to Category 6. This is the collective home for Weather Underground's featured writeups by Dr. Jeff Masters (right), Bob Henson (left), Chris Burt, and other regular contributors.

Nearby

Air Quality

  Air Quality AQ Index Pollutant
Not available.

Snow Depth

Station Depth Elevation

Earthquake Activity

City Distance Mag. Time & Date
Minimum magnitude displayed is 2.5.

Coastal Water Temperatures

Place Temperature

Stations

Nearby Weather Stations

Station Location Temp. Windchill Dew Point Humidity Wind Precip. Elev Updated Type
                   

Watches & Warnings

Flood Warning
Issued: 8:39 AM CDT Jul. 23, 2017 – National Weather Service

The Flood Warning continues for
the Fox River at Algonquin tailwater.
* Until further notice.
* At 730 am Sunday the stage was 12.8 feet.
* Flood stage is 9.5 feet.
* Recent activity... flood forecasts for Algonquin were moved to this
location on July 5 2011. Gage zero datum is different from the old
gage location. Flood and action stages have changed.
* Major flooding is occurring and major flooding is forecast.
* Forecast... the river will continue to fall to a stage of 12.5 feet
by Monday morning.



Lat... Lon 4238 8830 4237 8817 4221 8814 4194 8827
      4195 8838 4224 8828